Time;durP1;ratioP1;P1;durP2;ratioP2;P2;SDS_P1;SDS_P2;PMS_P1;PMS_P2;Temp;Humidity;BMP_temperature;BMP_pressure;BME280_temperature;BME280_humidity;BME280_pressure;Samples;Min_cycle;Max_cycle;Signal;HPM_P1;HPM_P2
2022/03/22 00:00:37;;;;;;;12.80;5.10;;;1.80;85.20;;;;;;5036922;28;20491;-64
2022/03/22 00:03:04;;;;;;;9.37;5.23;;;1.80;86.10;;;;;;5029669;28;20194;-65
2022/03/22 00:05:31;;;;;;;11.10;5.10;;;1.70;85.30;;;;;;5042254;28;20431;-65
2022/03/22 00:07:57;;;;;;;10.80;4.77;;;1.60;85.50;;;;;;5039445;28;20490;-66
2022/03/22 00:10:22;;;;;;;8.90;4.93;;;1.60;86.10;;;;;;5020057;28;20444;-66
2022/03/22 00:12:49;;;;;;;10.70;5.63;;;1.60;86.40;;;;;;5028320;28;20183;-66
2022/03/22 00:15:16;;;;;;;17.50;6.87;;;1.60;85.90;;;;;;5041298;28;20326;-66
2022/03/22 00:17:43;;;;;;;12.57;5.57;;;1.60;86.30;;;;;;5044414;28;20452;-65
2022/03/22 00:20:10;;;;;;;10.17;4.87;;;1.60;85.90;;;;;;5039983;28;20465;-64
2022/03/22 00:22:40;;;;;;;11.00;5.30;;;1.70;85.50;;;;;;5041001;28;20429;-65
2022/03/22 00:25:07;;;;;;;17.93;5.13;;;1.60;85.50;;;;;;5036567;28;20912;-65
2022/03/22 00:27:50;;;;;;;11.30;5.17;;;1.60;85.40;;;;;;5037353;28;20464;-63
2022/03/22 00:30:18;;;;;;;11.67;5.63;;;1.50;86.60;;;;;;5010838;28;20551;-64
2022/03/22 00:32:43;;;;;;;8.17;4.60;;;1.50;86.50;;;;;;5032449;28;20419;-67
2022/03/22 00:35:09;;;;;;;16.07;5.93;;;1.40;85.90;;;;;;5032149;28;20408;-67
2022/03/22 00:37:40;;;;;;;13.03;5.50;;;1.40;86.40;;;;;;5026333;28;20181;-68
2022/03/22 00:40:17;;;;;;;9.63;5.00;;;1.30;86.10;;;;;;5038459;28;20256;-68
2022/03/22 00:42:46;;;;;;;10.73;5.57;;;1.30;86.20;;;;;;5017983;28;20942;-68
2022/03/22 00:45:16;;;;;;;19.97;6.00;;;1.20;87.00;;;;;;5040873;28;20781;-66
2022/03/22 00:47:46;;;;;;;13.97;5.60;;;1.10;86.30;;;;;;5041533;28;20462;-67
2022/03/22 00:50:17;;;;;;;9.80;5.17;;;1.10;86.40;;;;;;5036985;28;20432;-64
2022/03/22 00:52:43;;;;;;;11.27;5.63;;;1.00;86.10;;;;;;5036581;28;20746;-68
2022/03/22 00:55:12;;;;;;;14.70;5.73;;;1.00;86.80;;;;;;5036341;28;20512;-68
2022/03/22 00:57:38;;;;;;;11.40;4.60;;;1.00;87.00;;;;;;5039310;28;20427;-67
2022/03/22 01:00:07;;;;;;;16.30;6.23;;;1.10;86.90;;;;;;5035144;28;20848;-68
2022/03/22 01:02:48;;;;;;;12.80;5.00;;;1.10;86.90;;;;;;5038317;28;20431;-69
2022/03/22 01:05:15;;;;;;;11.93;5.57;;;1.10;86.90;;;;;;5033027;28;20428;-67
2022/03/22 01:07:42;;;;;;;16.13;5.83;;;1.00;87.00;;;;;;5039098;28;20982;-65
2022/03/22 01:10:10;;;;;;;21.97;5.00;;;1.00;87.00;;;;;;5031026;28;20433;-67
2022/03/22 01:12:37;;;;;;;9.90;5.60;;;1.00;87.00;;;;;;5031466;28;20785;-66
2022/03/22 01:15:06;;;;;;;12.83;6.20;;;1.10;86.90;;;;;;5017532;28;20508;-66
2022/03/22 01:17:31;;;;;;;11.90;5.70;;;1.00;86.60;;;;;;5030995;28;20448;-65
2022/03/22 01:20:01;;;;;;;9.90;4.67;;;1.00;87.30;;;;;;5038978;28;20868;-66
2022/03/22 01:22:27;;;;;;;15.13;6.10;;;1.00;87.50;;;;;;5043619;28;20190;-64
2022/03/22 01:24:53;;;;;;;19.70;6.20;;;1.00;87.90;;;;;;5043040;28;20429;-65
2022/03/22 01:27:22;;;;;;;11.77;5.43;;;1.00;87.70;;;;;;5043567;28;20259;-66
2022/03/22 01:29:49;;;;;;;14.33;5.97;;;1.10;87.30;;;;;;5034776;28;20202;-66
2022/03/22 01:32:15;;;;;;;12.70;6.13;;;0.90;86.90;;;;;;5035756;28;20421;-67
2022/03/22 01:34:42;;;;;;;12.20;5.73;;;0.80;87.50;;;;;;5042781;28;20412;-66
2022/03/22 01:37:08;;;;;;;12.97;5.83;;;0.70;87.70;;;;;;5046550;28;20471;-67
2022/03/22 01:39:34;;;;;;;15.00;5.93;;;0.60;88.30;;;;;;5047156;28;20444;-67
2022/03/22 01:42:00;;;;;;;11.27;5.90;;;0.50;88.50;;;;;;5038999;28;21210;-66
2022/03/22 01:44:26;;;;;;;13.63;6.03;;;0.50;89.00;;;;;;5046905;28;20435;-66
2022/03/22 01:46:58;;;;;;;12.03;5.53;;;0.50;89.20;;;;;;5046591;28;21058;-65
2022/03/22 01:49:24;;;;;;;9.13;4.87;;;0.50;89.50;;;;;;5046410;28;20443;-65
2022/03/22 01:51:51;;;;;;;8.47;4.67;;;0.50;89.20;;;;;;5033026;28;20431;-65
2022/03/22 01:54:18;;;;;;;12.43;5.60;;;0.50;88.80;;;;;;5039940;28;20629;-66
2022/03/22 01:56:44;;;;;;;11.83;5.87;;;0.50;89.00;;;;;;5023495;28;20432;-65
2022/03/22 01:59:09;;;;;;;19.10;5.37;;;0.50;89.40;;;;;;5039280;28;20432;-66
2022/03/22 02:07:10;;;;;;;11.17;5.37;;;0.70;88.40;;;;;;5033940;28;20930;-65
2022/03/22 02:09:36;;;;;;;13.73;5.83;;;0.80;88.60;;;;;;5040049;28;20440;-65
2022/03/22 02:12:02;;;;;;;20.37;7.83;;;0.70;88.30;;;;;;5037888;28;20441;-65
2022/03/22 02:14:28;;;;;;;18.63;6.67;;;0.70;88.70;;;;;;5040332;28;20416;-66
2022/03/22 02:16:54;;;;;;;18.67;6.20;;;0.70;89.20;;;;;;5041167;28;20437;-66
2022/03/22 02:19:19;;;;;;;11.83;5.47;;;0.70;88.80;;;;;;5043502;28;20245;-65
2022/03/22 02:21:47;;;;;;;14.47;6.47;;;0.60;89.20;;;;;;5035703;28;20182;-66
2022/03/22 02:24:13;;;;;;;9.70;5.07;;;0.70;89.40;;;;;;5043029;28;20687;-65
2022/03/22 02:26:39;;;;;;;16.13;6.27;;;0.70;89.00;;;;;;5041704;28;20420;-65
2022/03/22 02:29:05;;;;;;;21.90;6.33;;;0.80;89.00;;;;;;5034459;28;20189;-64
2022/03/22 02:31:32;;;;;;;18.60;6.80;;;0.70;88.90;;;;;;5037028;28;20177;-66
2022/03/22 02:33:58;;;;;;;11.47;5.70;;;0.70;88.60;;;;;;5032046;28;20888;-63
2022/03/22 02:36:24;;;;;;;10.83;5.80;;;0.60;89.50;;;;;;5037208;28;20803;-66
2022/03/22 02:38:51;;;;;;;10.47;5.40;;;0.60;89.20;;;;;;5036794;28;20421;-64
2022/03/22 02:41:27;;;;;;;19.40;6.20;;;0.50;89.60;;;;;;5017044;28;20671;-66
2022/03/22 02:43:54;;;;;;;11.43;6.00;;;0.40;90.10;;;;;;5022186;28;20999;-65
2022/03/22 02:46:20;;;;;;;11.27;5.43;;;0.40;90.20;;;;;;5046719;28;20420;-65
2022/03/22 02:48:46;;;;;;;8.70;4.63;;;0.40;90.30;;;;;;5043634;28;20513;-66
2022/03/22 02:51:12;;;;;;;12.83;5.77;;;0.40;90.00;;;;;;5045334;28;20202;-65
2022/03/22 02:53:38;;;;;;;12.10;6.03;;;0.50;89.80;;;;;;5042332;28;20178;-66
2022/03/22 02:56:05;;;;;;;18.20;6.03;;;0.50;90.00;;;;;;5035605;28;20504;-65
2022/03/22 02:58:33;;;;;;;18.57;6.63;;;0.50;90.00;;;;;;5042779;28;20778;-66
2022/03/22 03:00:59;;;;;;;8.47;4.17;;;0.50;90.00;;;;;;5029826;28;20551;-66
2022/03/22 03:03:25;;;;;;;21.23;6.67;;;0.40;90.20;;;;;;5025024;28;20850;-66
2022/03/22 03:05:51;;;;;;;12.93;5.00;;;0.40;90.30;;;;;;5041641;28;20429;-65
2022/03/22 03:08:17;;;;;;;17.63;6.07;;;0.30;90.20;;;;;;5044024;28;20292;-65
2022/03/22 03:10:44;;;;;;;16.33;5.77;;;0.30;90.30;;;;;;5040863;28;20873;-66
2022/03/22 03:13:11;;;;;;;11.47;6.77;;;0.30;90.00;;;;;;5042199;28;20774;-66
2022/03/22 03:15:37;;;;;;;12.13;5.97;;;0.20;89.90;;;;;;5039917;28;20884;-65
2022/03/22 03:18:03;;;;;;;13.03;5.40;;;0.20;90.30;;;;;;5043390;28;20432;-64
2022/03/22 03:20:29;;;;;;;15.23;6.10;;;0.20;90.50;;;;;;5024685;28;20595;-65
2022/03/22 03:22:55;;;;;;;12.70;6.00;;;0.20;90.40;;;;;;5040371;28;20559;-65
2022/03/22 03:25:21;;;;;;;16.13;7.30;;;0.20;90.40;;;;;;5046434;28;20284;-65
2022/03/22 03:27:46;;;;;;;14.10;5.40;;;0.30;90.40;;;;;;5039897;28;20345;-66
2022/03/22 03:30:13;;;;;;;14.73;6.07;;;0.20;90.10;;;;;;5043954;28;20765;-65
2022/03/22 03:32:38;;;;;;;13.60;6.50;;;0.30;90.40;;;;;;5026696;28;20192;-65
2022/03/22 03:35:05;;;;;;;15.23;5.10;;;0.30;90.20;;;;;;5040673;28;21091;-66
2022/03/22 03:37:34;;;;;;;19.03;7.00;;;0.30;90.30;;;;;;5040834;28;20174;-63
2022/03/22 03:40:01;;;;;;;18.93;6.60;;;0.30;90.30;;;;;;5041417;28;20496;-65
2022/03/22 03:42:26;;;;;;;15.70;6.70;;;0.30;90.20;;;;;;5040004;28;20420;-66
2022/03/22 03:47:36;;;;;;;12.37;6.20;;;0.20;90.30;;;;;;5028929;28;20269;-66
2022/03/22 03:50:05;;;;;;;12.20;5.40;;;0.20;90.60;;;;;;5029705;28;20449;-65
2022/03/22 03:52:33;;;;;;;11.50;5.30;;;0.10;90.20;;;;;;5029985;28;20185;-64
2022/03/22 03:55:00;;;;;;;17.30;5.77;;;0.00;90.80;;;;;;5040597;28;20412;-65
2022/03/22 03:57:27;;;;;;;11.57;5.60;;;0.00;90.90;;;;;;5039731;28;20421;-65
2022/03/22 03:59:54;;;;;;;11.43;5.33;;;0.00;91.00;;;;;;5041703;28;20643;-63
2022/03/22 04:02:21;;;;;;;9.87;5.27;;;0.10;91.10;;;;;;5038288;28;20425;-65
2022/03/22 04:04:51;;;;;;;16.23;5.43;;;0.00;90.80;;;;;;5041586;28;20452;-65
2022/03/22 04:07:24;;;;;;;16.87;7.00;;;-0.10;90.90;;;;;;5035780;28;20952;-64
2022/03/22 04:09:50;;;;;;;13.27;6.60;;;-0.10;90.90;;;;;;5034316;28;21237;-64
2022/03/22 04:12:16;;;;;;;12.60;5.87;;;-0.20;91.00;;;;;;5033309;28;20761;-63
2022/03/22 04:14:42;;;;;;;15.07;6.07;;;-0.20;91.10;;;;;;5030516;28;20841;-65
2022/03/22 04:17:08;;;;;;;16.97;5.00;;;-0.30;91.20;;;;;;5045029;28;20421;-65
2022/03/22 04:19:35;;;;;;;9.70;5.07;;;-0.30;91.30;;;;;;5038004;28;20576;-64
2022/03/22 04:22:02;;;;;;;18.67;5.10;;;-0.30;91.30;;;;;;5043409;28;20427;-64
2022/03/22 04:24:28;;;;;;;14.63;6.13;;;-0.40;91.40;;;;;;5037948;28;20432;-64
2022/03/22 04:26:55;;;;;;;17.07;7.40;;;-0.40;91.40;;;;;;5020379;28;20506;-65
2022/03/22 04:34:50;;;;;;;13.37;6.17;;;-0.20;91.60;;;;;;5032939;28;20454;-63
2022/03/22 04:37:16;;;;;;;11.73;5.03;;;-0.20;91.40;;;;;;5037539;28;20416;-67
2022/03/22 04:39:45;;;;;;;10.97;5.57;;;-0.20;91.30;;;;;;5033814;28;20669;-67
2022/03/22 04:42:14;;;;;;;12.00;6.43;;;-0.10;91.20;;;;;;5031361;28;20417;-67
2022/03/22 04:44:40;;;;;;;13.30;6.50;;;-0.20;91.10;;;;;;5038951;28;20424;-67
2022/03/22 04:47:06;;;;;;;14.00;6.27;;;-0.30;91.00;;;;;;5036142;28;20515;-68
2022/03/22 04:49:33;;;;;;;13.57;5.73;;;-0.30;91.30;;;;;;5035727;28;20447;-67
2022/03/22 04:57:40;;;;;;;14.37;7.10;;;-0.50;91.70;;;;;;5040572;28;20488;-66
2022/03/22 05:00:07;;;;;;;14.93;7.13;;;-0.50;91.70;;;;;;5042983;28;20494;-66
2022/03/22 05:02:33;;;;;;;15.40;7.10;;;-0.60;91.80;;;;;;5018658;28;20189;-65
2022/03/22 05:05:00;;;;;;;16.37;7.33;;;-0.60;92.00;;;;;;5042802;28;20431;-68
2022/03/22 05:07:26;;;;;;;19.57;8.37;;;-0.60;92.00;;;;;;5042697;28;20206;-67
2022/03/22 05:09:52;;;;;;;16.23;7.70;;;-0.60;92.20;;;;;;5045109;28;20432;-67
2022/03/22 05:12:18;;;;;;;19.93;7.57;;;-0.50;92.10;;;;;;5039748;28;20427;-66
2022/03/22 05:14:47;;;;;;;10.57;6.27;;;-0.50;92.10;;;;;;5039981;28;20186;-66
2022/03/22 05:17:13;;;;;;;17.00;8.37;;;-0.40;91.90;;;;;;5038254;28;20462;-66
2022/03/22 05:19:39;;;;;;;13.87;6.67;;;-0.40;91.90;;;;;;5036095;28;20441;-67
2022/03/22 05:22:05;;;;;;;14.93;6.37;;;-0.40;91.70;;;;;;5044618;28;20189;-67
2022/03/22 05:24:31;;;;;;;12.90;6.50;;;-0.40;91.80;;;;;;5030492;28;20523;-67
2022/03/22 05:26:57;;;;;;;15.07;6.83;;;-0.40;91.80;;;;;;5038633;28;20502;-65
2022/03/22 05:29:22;;;;;;;13.77;6.93;;;-0.40;91.80;;;;;;5019371;28;20206;-65
2022/03/22 05:31:48;;;;;;;17.60;6.80;;;-0.50;91.80;;;;;;5043246;28;20272;-66
2022/03/22 05:34:13;;;;;;;14.37;7.00;;;-0.50;92.00;;;;;;5037385;28;20190;-66
2022/03/22 05:36:39;;;;;;;12.50;6.00;;;-0.60;92.50;;;;;;5041441;28;20216;-66
2022/03/22 05:39:05;;;;;;;15.80;7.50;;;-0.60;92.20;;;;;;5048041;28;20190;-67
2022/03/22 05:41:31;;;;;;;18.03;6.30;;;-0.50;92.30;;;;;;5038649;28;20495;-66
2022/03/22 05:43:56;;;;;;;20.50;9.30;;;-0.50;92.00;;;;;;5045859;28;20209;-67
2022/03/22 05:46:22;;;;;;;16.63;7.87;;;-0.60;92.30;;;;;;5037756;28;20546;-66
2022/03/22 05:48:48;;;;;;;19.63;8.33;;;-0.60;92.20;;;;;;5045484;28;20264;-67
2022/03/22 05:51:16;;;;;;;27.17;10.73;;;-0.50;92.10;;;;;;5042660;28;20189;-65
2022/03/22 05:53:44;;;;;;;26.47;10.40;;;-0.50;92.40;;;;;;5045289;28;20424;-67
2022/03/22 05:56:09;;;;;;;23.43;9.50;;;-0.50;92.30;;;;;;5036811;28;20441;-64
2022/03/22 05:58:36;;;;;;;14.03;6.97;;;-0.40;92.30;;;;;;5032698;28;20440;-67
2022/03/22 06:01:01;;;;;;;12.77;6.03;;;-0.40;92.10;;;;;;5039081;28;20286;-66
2022/03/22 06:03:27;;;;;;;17.33;7.60;;;-0.40;92.30;;;;;;5039021;28;20899;-67
2022/03/22 06:05:53;;;;;;;17.80;8.77;;;-0.30;92.20;;;;;;5029683;28;20272;-66
2022/03/22 06:08:19;;;;;;;13.00;7.07;;;-0.40;92.30;;;;;;5028106;28;20210;-66
2022/03/22 06:10:45;;;;;;;14.73;6.57;;;-0.30;92.60;;;;;;5032812;28;20210;-64
2022/03/22 06:13:11;;;;;;;15.63;6.93;;;-0.30;92.30;;;;;;5029736;28;20430;-66
2022/03/22 06:15:38;;;;;;;18.20;7.63;;;-0.20;92.20;;;;;;5030421;28;20428;-66
2022/03/22 06:18:05;;;;;;;17.83;6.63;;;-0.20;92.50;;;;;;5033021;28;20798;-64
2022/03/22 06:20:36;;;;;;;22.57;8.50;;;0.00;92.40;;;;;;5030163;28;20465;-66
2022/03/22 06:23:04;;;;;;;22.63;7.30;;;-0.10;92.30;;;;;;5033250;28;20452;-66
2022/03/22 06:25:30;;;;;;;16.00;6.50;;;0.10;92.50;;;;;;5031050;28;20456;-65
2022/03/22 06:27:57;;;;;;;19.40;8.33;;;0.10;92.20;;;;;;5049313;28;20475;-65
2022/03/22 06:30:23;;;;;;;12.93;6.20;;;0.20;92.20;;;;;;5042624;28;20916;-64
2022/03/22 06:32:51;;;;;;;20.67;7.20;;;0.40;92.30;;;;;;5027295;28;20488;-65
2022/03/22 06:35:31;;;;;;;16.97;6.80;;;0.50;91.90;;;;;;5045831;28;20440;-65
2022/03/22 06:37:59;;;;;;;12.80;6.33;;;0.50;91.70;;;;;;5047518;28;20432;-66
2022/03/22 06:40:29;;;;;;;13.63;6.80;;;0.60;91.90;;;;;;5045057;28;20505;-67
2022/03/22 06:42:56;;;;;;;18.53;7.80;;;0.70;91.90;;;;;;5040920;28;20469;-67
2022/03/22 06:45:22;;;;;;;18.87;7.77;;;0.80;92.20;;;;;;5039522;28;20452;-65
2022/03/22 06:47:48;;;;;;;17.10;7.17;;;1.10;92.30;;;;;;5047715;28;20469;-66
2022/03/22 06:50:16;;;;;;;28.30;7.70;;;1.20;91.90;;;;;;5053462;28;20435;-67
2022/03/22 06:52:42;;;;;;;26.40;8.63;;;1.30;91.30;;;;;;5035990;28;20912;-64
2022/03/22 06:55:10;;;;;;;14.03;7.57;;;1.40;91.20;;;;;;5031279;28;20456;-66
2022/03/22 06:57:36;;;;;;;16.87;7.13;;;1.60;91.40;;;;;;5033937;28;20421;-67
2022/03/22 07:00:11;;;;;;;16.80;8.10;;;1.80;91.30;;;;;;5030706;28;20461;-66
2022/03/22 07:02:39;;;;;;;18.90;7.67;;;2.10;91.30;;;;;;5031466;28;20433;-67
2022/03/22 07:05:06;;;;;;;14.40;6.07;;;2.30;90.30;;;;;;5030071;28;20867;-66
2022/03/22 07:07:32;;;;;;;24.40;8.90;;;2.50;90.00;;;;;;5035577;28;20471;-66
2022/03/22 07:09:58;;;;;;;12.73;5.90;;;2.80;89.60;;;;;;5028828;28;20457;-66
2022/03/22 07:12:23;;;;;;;16.43;7.60;;;3.00;88.80;;;;;;5030902;28;20208;-67
2022/03/22 07:14:49;;;;;;;14.73;7.87;;;3.30;88.30;;;;;;5031743;28;20266;-67
2022/03/22 07:17:15;;;;;;;15.43;7.60;;;3.50;88.00;;;;;;5030911;28;20213;-67
2022/03/22 07:19:40;;;;;;;26.00;9.03;;;3.80;87.30;;;;;;5011708;28;20276;-68
2022/03/22 07:22:06;;;;;;;32.83;9.07;;;4.10;85.60;;;;;;5040835;28;20692;-66
2022/03/22 07:24:33;;;;;;;23.07;9.13;;;4.40;85.70;;;;;;5034008;28;20576;-67
2022/03/22 07:26:59;;;;;;;14.20;7.03;;;4.80;85.90;;;;;;5035010;28;20448;-66
2022/03/22 07:29:24;;;;;;;14.50;7.23;;;5.60;83.70;;;;;;5033163;28;20541;-68
2022/03/22 07:31:50;;;;;;;18.30;7.00;;;6.40;82.50;;;;;;5035316;28;20456;-68
2022/03/22 07:34:17;;;;;;;17.60;7.77;;;6.80;81.00;;;;;;5026817;28;20194;-68
2022/03/22 07:36:44;;;;;;;12.43;7.13;;;7.60;80.10;;;;;;5032631;28;20186;-68
2022/03/22 07:39:11;;;;;;;15.67;7.30;;;8.80;78.30;;;;;;5033558;28;20463;-68
2022/03/22 07:41:44;;;;;;;22.17;6.67;;;10.10;72.00;;;;;;5062781;28;20554;-65
2022/03/22 07:44:13;;;;;;;20.83;8.73;;;10.80;69.80;;;;;;5063624;28;20899;-66
2022/03/22 07:46:40;;;;;;;19.70;8.37;;;11.50;68.50;;;;;;5062753;28;20522;-65
2022/03/22 07:54:35;;;;;;;17.33;7.90;;;14.00;61.70;;;;;;5062007;28;20863;-67
2022/03/22 07:57:01;;;;;;;19.50;7.27;;;14.70;59.10;;;;;;5063012;28;20523;-66
2022/03/22 07:59:30;;;;;;;15.50;8.07;;;14.60;59.10;;;;;;5061862;28;20514;-66
2022/03/22 08:01:55;;;;;;;19.20;7.57;;;14.30;59.40;;;;;;5062475;28;20200;-67
2022/03/22 08:04:21;;;;;;;11.43;7.17;;;14.40;58.80;;;;;;5059725;28;20758;-66
2022/03/22 08:06:47;;;;;;;24.73;7.60;;;14.50;58.10;;;;;;5062081;28;20205;-66
2022/03/22 08:09:12;;;;;;;11.40;6.53;;;14.70;58.40;;;;;;5062532;28;20189;-66
2022/03/22 08:11:39;;;;;;;13.67;6.57;;;15.40;58.00;;;;;;5062637;28;20189;-66
2022/03/22 08:14:05;;;;;;;12.50;6.97;;;15.80;56.60;;;;;;5061614;28;20189;-66
2022/03/22 08:16:31;;;;;;;17.00;7.47;;;15.30;57.00;;;;;;5061922;28;20439;-66
2022/03/22 08:18:57;;;;;;;25.30;7.93;;;15.50;56.50;;;;;;5061918;28;20446;-67
2022/03/22 08:21:23;;;;;;;15.37;7.50;;;14.90;57.30;;;;;;5060704;28;20982;-67
2022/03/22 08:23:49;;;;;;;17.40;7.20;;;15.20;57.00;;;;;;5061341;28;20280;-67
2022/03/22 08:26:14;;;;;;;12.77;7.03;;;16.10;54.60;;;;;;5059174;28;20227;-67
2022/03/22 08:28:42;;;;;;;17.37;7.80;;;16.20;54.20;;;;;;5062237;28;20239;-67
2022/03/22 08:31:11;;;;;;;17.43;7.37;;;16.20;54.90;;;;;;5062203;28;20209;-67
2022/03/22 08:33:36;;;;;;;15.90;7.13;;;15.40;55.30;;;;;;5062145;28;20939;-67
2022/03/22 08:36:02;;;;;;;11.57;6.07;;;15.40;55.00;;;;;;5059413;28;20446;-67
2022/03/22 08:38:28;;;;;;;13.67;6.30;;;15.20;55.80;;;;;;5061195;28;20574;-66
2022/03/22 08:40:57;;;;;;;14.80;7.40;;;15.40;55.10;;;;;;5061649;28;20238;-67
2022/03/22 08:43:26;;;;;;;18.67;7.67;;;15.50;53.80;;;;;;5061910;28;20204;-67
2022/03/22 08:45:53;;;;;;;13.23;7.30;;;15.90;52.10;;;;;;5062644;28;20423;-67
2022/03/22 08:48:19;;;;;;;16.47;8.23;;;15.70;52.30;;;;;;5062085;28;20424;-66
2022/03/22 08:50:48;;;;;;;15.80;6.43;;;15.70;52.60;;;;;;5061761;28;20439;-67
2022/03/22 08:53:16;;;;;;;16.70;6.97;;;15.90;53.00;;;;;;5046421;28;20966;-67
2022/03/22 08:55:42;;;;;;;12.27;6.70;;;16.00;52.90;;;;;;5045127;28;20929;-68
2022/03/22 08:58:08;;;;;;;16.43;6.90;;;16.00;52.70;;;;;;5047522;28;20416;-67
2022/03/22 09:00:35;;;;;;;13.20;6.63;;;16.50;51.00;;;;;;5046803;28;20474;-67
2022/03/22 09:03:01;;;;;;;20.27;7.00;;;16.20;50.30;;;;;;5046817;28;20220;-67
2022/03/22 09:08:12;;;;;;;16.97;7.30;;;15.90;50.90;;;;;;5047230;28;21087;-68
2022/03/22 09:10:37;;;;;;;20.90;6.47;;;15.90;50.40;;;;;;5046908;28;20440;-67
2022/03/22 09:13:04;;;;;;;15.27;7.47;;;15.80;50.20;;;;;;5047134;28;20193;-67
2022/03/22 09:15:32;;;;;;;18.77;7.70;;;15.70;50.40;;;;;;5046388;28;20182;-68
2022/03/22 09:17:58;;;;;;;15.10;7.47;;;15.60;51.90;;;;;;5046941;28;20420;-68
2022/03/22 09:20:25;;;;;;;14.60;7.10;;;15.50;52.60;;;;;;5046147;28;20470;-68
2022/03/22 09:22:53;;;;;;;19.07;7.27;;;15.30;53.10;;;;;;5046217;28;20652;-68
2022/03/22 09:25:22;;;;;;;12.77;6.33;;;15.30;51.80;;;;;;5046916;28;20427;-67
2022/03/22 09:27:49;;;;;;;15.53;6.90;;;15.20;54.00;;;;;;5046943;28;20760;-67
2022/03/22 09:30:15;;;;;;;14.70;7.07;;;14.80;55.30;;;;;;5046281;28;20463;-67
2022/03/22 09:32:44;;;;;;;15.87;6.83;;;15.10;53.80;;;;;;5046503;28;20432;-67
2022/03/22 09:35:13;;;;;;;14.00;6.60;;;15.20;53.50;;;;;;5044194;28;20213;-67
2022/03/22 09:37:43;;;;;;;14.33;7.97;;;16.00;51.00;;;;;;5047041;28;20428;-67
2022/03/22 09:40:10;;;;;;;20.10;7.40;;;16.10;49.20;;;;;;5046017;28;20478;-67
2022/03/22 09:42:42;;;;;;;14.17;7.53;;;15.50;50.50;;;;;;5046504;28;20486;-68
2022/03/22 09:45:14;;;;;;;13.67;7.30;;;15.40;49.80;;;;;;5046016;28;20886;-67
2022/03/22 09:47:42;;;;;;;19.40;8.10;;;15.20;51.60;;;;;;5046543;28;20478;-68
2022/03/22 09:50:09;;;;;;;14.63;7.90;;;15.30;53.40;;;;;;5045575;28;20444;-65
2022/03/22 09:52:36;;;;;;;15.80;7.43;;;15.30;53.10;;;;;;5046828;28;20420;-66
2022/03/22 09:55:03;;;;;;;22.80;8.40;;;15.00;53.10;;;;;;5045721;28;20535;-66
2022/03/22 09:57:28;;;;;;;19.43;6.77;;;14.50;54.40;;;;;;5046404;28;20424;-66
2022/03/22 09:59:54;;;;;;;15.07;7.13;;;14.20;55.20;;;;;;5045870;28;20455;-66
2022/03/22 10:02:28;;;;;;;16.30;7.60;;;13.90;55.90;;;;;;5046111;28;20362;-66
2022/03/22 10:04:53;;;;;;;16.03;6.43;;;13.80;55.20;;;;;;5044741;28;20190;-66
2022/03/22 10:07:20;;;;;;;15.80;7.03;;;14.00;52.70;;;;;;5045625;28;20424;-66
2022/03/22 10:09:58;;;;;;;15.50;6.97;;;13.80;52.70;;;;;;5046260;28;20238;-66
2022/03/22 10:12:30;;;;;;;12.00;5.57;;;14.00;52.30;;;;;;5047555;28;20438;-65
2022/03/22 10:15:10;;;;;;;14.43;6.23;;;14.00;51.90;;;;;;5046959;28;20630;-66
2022/03/22 10:17:36;;;;;;;13.30;5.60;;;14.00;49.70;;;;;;5047513;28;20859;-66
2022/03/22 10:20:05;;;;;;;10.53;5.30;;;13.80;51.60;;;;;;5046472;28;20505;-66
2022/03/22 10:22:32;;;;;;;19.07;6.70;;;13.70;52.90;;;;;;5046469;28;20467;-65
2022/03/22 10:25:02;;;;;;;12.57;7.20;;;13.80;52.50;;;;;;5046450;28;21042;-65
2022/03/22 10:27:30;;;;;;;15.57;6.27;;;13.80;52.20;;;;;;5047025;28;20420;-66
2022/03/22 10:29:58;;;;;;;16.27;6.77;;;13.90;52.50;;;;;;5046096;28;20452;-65
2022/03/22 10:32:51;;;;;;;14.13;7.47;;;14.10;52.70;;;;;;5046523;28;20912;-65
2022/03/22 10:35:27;;;;;;;12.93;6.30;;;14.10;49.80;;;;;;5042894;28;20432;-66
2022/03/22 10:37:56;;;;;;;12.47;5.27;;;13.90;50.00;;;;;;5047346;28;20432;-66
2022/03/22 10:40:29;;;;;;;14.43;6.43;;;13.90;50.30;;;;;;5033634;28;20529;-66
2022/03/22 10:43:00;;;;;;;13.17;6.40;;;14.10;51.00;;;;;;5031008;28;20455;-66
2022/03/22 10:45:27;;;;;;;12.30;6.17;;;14.10;50.90;;;;;;5027051;28;20527;-66
2022/03/22 10:47:54;;;;;;;15.80;6.53;;;14.10;51.60;;;;;;5026604;28;20429;-66
2022/03/22 10:50:20;;;;;;;17.37;6.13;;;14.50;51.30;;;;;;5025986;28;20433;-66
2022/03/22 10:52:49;;;;;;;12.13;6.37;;;14.70;52.20;;;;;;5027418;28;20967;-66
2022/03/22 10:55:19;;;;;;;15.50;5.83;;;14.90;51.50;;;;;;5027155;28;20190;-66
2022/03/22 10:57:50;;;;;;;12.50;6.40;;;14.90;50.60;;;;;;5026830;28;20765;-66
2022/03/22 11:00:17;;;;;;;14.30;7.10;;;15.00;50.90;;;;;;5025198;28;20467;-66
2022/03/22 11:02:46;;;;;;;23.73;6.67;;;14.90;51.00;;;;;;5027525;28;20447;-65
2022/03/22 11:05:15;;;;;;;14.67;7.07;;;15.00;51.80;;;;;;5021369;28;20516;-66
2022/03/22 11:07:41;;;;;;;17.50;6.77;;;15.10;51.40;;;;;;5021383;28;20479;-66
2022/03/22 11:10:08;;;;;;;15.23;7.80;;;15.30;51.80;;;;;;5028474;28;20649;-66
2022/03/22 11:12:35;;;;;;;15.70;6.37;;;15.60;49.70;;;;;;5029094;28;20455;-66
2022/03/22 11:15:03;;;;;;;15.70;6.50;;;15.40;49.60;;;;;;5029325;28;20432;-66
2022/03/22 11:17:35;;;;;;;16.43;7.13;;;15.30;50.30;;;;;;5030449;28;20463;-66
2022/03/22 11:20:07;;;;;;;14.57;7.00;;;15.20;51.20;;;;;;5025883;28;20479;-66
2022/03/22 11:22:33;;;;;;;16.90;6.70;;;15.30;50.60;;;;;;5020235;28;20413;-66
2022/03/22 11:25:13;;;;;;;15.20;6.90;;;15.50;50.00;;;;;;5025741;28;20428;-66
2022/03/22 11:27:39;;;;;;;11.60;5.90;;;15.60;52.90;;;;;;5031143;28;20179;-66
2022/03/22 11:30:08;;;;;;;14.50;6.30;;;15.90;50.90;;;;;;5028408;28;20445;-66
2022/03/22 11:35:25;;;;;;;27.33;7.47;;;15.70;49.90;;;;;;5027488;28;20436;-66
2022/03/22 11:38:01;;;;;;;12.97;7.30;;;15.80;51.40;;;;;;5027677;28;20421;-66
2022/03/22 11:43:13;;;;;;;18.30;6.90;;;16.20;50.00;;;;;;5026169;28;20460;-66
2022/03/22 11:45:50;;;;;;;19.60;6.90;;;16.20;50.20;;;;;;5025876;28;20419;-66
2022/03/22 11:48:17;;;;;;;15.23;7.97;;;16.20;50.70;;;;;;5026519;28;20427;-65
2022/03/22 11:50:44;;;;;;;14.50;7.10;;;16.20;50.30;;;;;;5024718;28;20441;-65
2022/03/22 11:53:18;;;;;;;14.77;7.00;;;16.40;50.10;;;;;;5021198;28;20453;-66
2022/03/22 11:55:48;;;;;;;17.00;7.70;;;16.50;49.70;;;;;;5025793;28;20425;-66
2022/03/22 11:58:14;;;;;;;12.07;6.80;;;16.60;50.40;;;;;;5025926;28;21266;-66
2022/03/22 12:00:42;;;;;;;12.80;5.90;;;16.70;49.80;;;;;;5025593;28;20492;-66
2022/03/22 12:03:09;;;;;;;14.10;6.67;;;16.60;49.30;;;;;;5029496;28;20448;-66
2022/03/22 12:05:34;;;;;;;35.17;7.07;;;16.80;48.80;;;;;;5028942;28;20450;-64
2022/03/22 12:08:13;;;;;;;20.00;7.03;;;17.00;47.70;;;;;;5023876;28;20429;-66
2022/03/22 12:10:39;;;;;;;11.30;6.97;;;17.10;48.00;;;;;;5025590;28;20187;-65
2022/03/22 12:13:05;;;;;;;17.10;7.47;;;16.80;49.00;;;;;;5025918;28;20917;-65
2022/03/22 12:15:31;;;;;;;15.33;6.63;;;16.70;47.90;;;;;;5025374;28;20202;-65
2022/03/22 12:17:57;;;;;;;12.97;5.70;;;16.80;48.00;;;;;;5026013;28;20210;-65
2022/03/22 12:20:24;;;;;;;17.30;6.67;;;16.60;46.70;;;;;;5029519;28;20464;-66
2022/03/22 12:22:56;;;;;;;15.43;6.57;;;16.50;46.10;;;;;;5022116;28;20273;-66
2022/03/22 12:25:26;;;;;;;11.93;6.73;;;16.70;49.00;;;;;;5020133;28;20468;-66
2022/03/22 12:27:56;;;;;;;12.93;6.93;;;16.70;46.80;;;;;;5024828;28;20711;-65
2022/03/22 12:30:24;;;;;;;12.17;6.20;;;17.00;46.80;;;;;;5027649;28;20529;-65
2022/03/22 12:32:56;;;;;;;22.67;7.30;;;17.00;47.10;;;;;;5028557;28;20514;-66
2022/03/22 12:35:22;;;;;;;20.50;6.10;;;17.40;46.90;;;;;;5027072;28;20485;-66
2022/03/22 12:37:49;;;;;;;15.53;6.73;;;17.80;46.00;;;;;;5029750;28;20424;-66
2022/03/22 12:40:16;;;;;;;8.80;5.23;;;17.90;44.80;;;;;;5029270;28;20472;-66
2022/03/22 12:42:43;;;;;;;17.60;6.70;;;18.00;43.10;;;;;;5032587;28;20442;-65
2022/03/22 12:45:10;;;;;;;13.77;5.53;;;17.50;44.10;;;;;;5025617;28;20771;-66
2022/03/22 12:47:37;;;;;;;12.47;6.50;;;17.20;42.50;;;;;;5029682;28;20432;-66
2022/03/22 12:50:04;;;;;;;15.73;7.40;;;17.50;43.10;;;;;;5026278;28;20417;-66
2022/03/22 12:52:30;;;;;;;10.73;5.77;;;17.30;41.40;;;;;;5027426;28;20421;-66
2022/03/22 12:54:56;;;;;;;12.20;5.30;;;17.10;42.10;;;;;;5028049;28;20432;-66
2022/03/22 12:57:22;;;;;;;8.47;4.90;;;17.00;40.90;;;;;;5029277;28;20213;-66
2022/03/22 12:59:48;;;;;;;16.30;7.77;;;17.20;43.00;;;;;;5026724;28;20472;-66
2022/03/22 13:02:14;;;;;;;16.50;6.53;;;17.50;44.90;;;;;;5027445;28;20213;-65
2022/03/22 13:04:46;;;;;;;16.33;7.57;;;17.40;46.00;;;;;;5026633;28;20186;-65
2022/03/22 13:07:23;;;;;;;17.47;7.50;;;17.40;46.40;;;;;;5027101;28;20937;-65
2022/03/22 13:12:35;;;;;;;18.50;7.17;;;17.60;44.00;;;;;;5027032;28;20420;-65
2022/03/22 13:15:07;;;;;;;13.23;7.40;;;17.50;44.20;;;;;;5026936;28;20425;-66
2022/03/22 13:17:42;;;;;;;12.00;6.13;;;17.70;45.10;;;;;;5025584;28;20428;-66